Terminal Aerodrome Forecast
Issued by NWS

Home | Current Version | Previous Version | Text Only | Print | Product List | Glossary On
Versions: 1 2 3 4 5 6 7 8 9 10 11 12 13 14
000
FTUS44 KCRP 291720
TAFALI
TAF
KALI 291720Z 2918/3018 16013KT P6SM VCTS SCT050CB SCT250
     FM300000 14006KT P6SM FEW020 SCT200
     FM301000 15003KT 5SM BR SCT015
     FM301300 17007KT P6SM SCT020 SCT030=

USA.gov is the U.S. government's official web portal to all federal, state and local government web resources and services.